Terminal Aerodrome Forecast
Issued by NWS

Home | Current Version | Previous Version | Graphics & Text | Print | Product List | Glossary On
Versions: 1 2 3 4 5 6 7 8 9 10 11 12 13 14 15 16 17 18 19 20 21 22 23 24 25 26 27 28 29 30 31 32
000
FTUS43 KLOT 301400 AAA
TAFMDW
TAF AMD
KMDW 301400Z 3014/3112 26007KT 6SM -SHRA SCT015 OVC050
     FM301600 02012G18KT 5SM -SHRA BR SCT007 OVC015
      TEMPO 3016/3018 3SM -RA BR BKN008
     FM301800 02017G26KT 4SM -RA BR OVC007
     FM301900 02018G28KT 3SM RA BR OVC005
     FM310000 02020G30KT 6SM -SHRA BKN007 OVC015
     FM310400 01018G28KT P6SM BKN015=

USA.gov is the U.S. government's official web portal to all federal, state and local government web resources and services.